createdAt,value
2023-01-29T00:05:28.861Z,20.2
2023-01-29T00:10:59.297Z,20.2
2023-01-29T00:16:29.735Z,20.2
2023-01-29T00:22:00.455Z,20.2
2023-01-29T00:27:30.978Z,20.1
2023-01-29T00:33:00.446Z,20.1
2023-01-29T00:38:30.904Z,20.1
2023-01-29T00:44:01.413Z,20.1
2023-01-29T00:49:32.009Z,20.1
2023-01-29T00:55:02.485Z,20.1
2023-01-29T01:00:32.992Z,20.1
2023-01-29T01:06:02.443Z,20.1
2023-01-29T01:11:32.921Z,20.1
2023-01-29T01:17:03.392Z,20
2023-01-29T01:22:34.105Z,20
2023-01-29T01:28:04.590Z,20
2023-01-29T01:33:35.219Z,20
2023-01-29T01:39:05.653Z,20
2023-01-29T01:44:36.168Z,20
2023-01-29T01:50:06.612Z,20
2023-01-29T01:55:37.173Z,20
2023-01-29T02:01:08.098Z,20
2023-01-29T02:06:35.871Z,20
2023-01-29T02:12:06.294Z,20
2023-01-29T02:17:35.922Z,20
2023-01-29T02:23:05.555Z,20
2023-01-29T02:28:36.001Z,20
2023-01-29T02:34:05.494Z,20
2023-01-29T02:39:36.029Z,20
2023-01-29T02:45:05.644Z,20
2023-01-29T02:50:36.219Z,20
2023-01-29T02:56:06.715Z,20
2023-01-29T03:01:37.304Z,19.9
2023-01-29T03:07:06.787Z,19.9
2023-01-29T03:12:36.444Z,19.9
2023-01-29T03:18:06.892Z,20
2023-01-29T03:23:37.490Z,19.9
2023-01-29T03:29:07.992Z,19.9
2023-01-29T03:34:37.572Z,19.9
2023-01-29T03:40:08.133Z,19.9
2023-01-29T03:45:38.572Z,19.9
2023-01-29T03:51:09.077Z,19.9
2023-01-29T03:56:39.813Z,19.9
2023-01-29T04:02:10.283Z,19.9
2023-01-29T04:07:40.748Z,19.9
2023-01-29T04:13:10.211Z,19.9
2023-01-29T04:18:40.705Z,19.9
2023-01-29T04:24:11.196Z,19.9
2023-01-29T04:29:41.764Z,19.8
2023-01-29T04:35:12.235Z,19.9
2023-01-29T04:40:41.766Z,19.9
2023-01-29T04:46:12.227Z,19.9
2023-01-29T04:51:42.726Z,19.9
2023-01-29T04:57:13.301Z,19.9
2023-01-29T05:02:43.839Z,19.9
2023-01-29T05:08:14.252Z,19.9
2023-01-29T05:13:43.920Z,19.9
2023-01-29T05:19:14.233Z,19.9
2023-01-29T05:24:44.894Z,19.9
2023-01-29T05:30:15.698Z,19.8
2023-01-29T05:35:45.897Z,19.8
2023-01-29T05:41:16.502Z,19.8
2023-01-29T05:46:47.008Z,19.8
2023-01-29T05:52:17.411Z,19.8
2023-01-29T05:57:48.003Z,19.8
2023-01-29T06:03:18.573Z,19.8
2023-01-29T06:08:47.974Z,19.8
2023-01-29T06:14:17.441Z,19.8
2023-01-29T06:19:47.929Z,19.9
2023-01-29T06:25:18.386Z,19.9
2023-01-29T06:30:49.052Z,19.9
2023-01-29T06:36:19.485Z,19.8
2023-01-29T06:41:49.945Z,19.8
2023-01-29T06:47:20.546Z,19.9
2023-01-29T06:52:51.017Z,19.8
2023-01-29T06:58:20.502Z,19.8
2023-01-29T07:03:50.974Z,19.8
2023-01-29T07:09:21.447Z,19.8
2023-01-29T07:14:50.932Z,19.8
2023-01-29T07:20:21.430Z,19.8
2023-01-29T07:25:51.898Z,19.8
2023-01-29T07:31:22.649Z,19.7
2023-01-29T07:36:53.097Z,19.6
2023-01-29T07:42:23.697Z,19.6
2023-01-29T07:47:54.199Z,19.5
2023-01-29T07:53:24.655Z,19.5
2023-01-29T07:58:54.140Z,19.4
2023-01-29T08:04:24.619Z,19.2
2023-01-29T08:09:55.217Z,19.2
2023-01-29T08:15:25.790Z,19.1
2023-01-29T08:20:56.296Z,19
2023-01-29T08:26:26.857Z,19
2023-01-29T08:31:57.369Z,18.9
2023-01-29T08:37:27.820Z,18.9
2023-01-29T08:42:58.218Z,18.9
2023-01-29T08:48:27.743Z,18.8
2023-01-29T08:53:58.325Z,18.8
2023-01-29T08:59:28.809Z,18.8
2023-01-29T09:04:59.285Z,18.8
2023-01-29T09:10:28.787Z,18.7
2023-01-29T09:15:59.245Z,18.7
2023-01-29T09:21:29.698Z,18.7
2023-01-29T09:27:00.278Z,18.7
2023-01-29T09:32:52.711Z,18.7
2023-01-29T09:38:00.248Z,18.6
2023-01-29T09:43:30.722Z,18.6
2023-01-29T09:49:01.197Z,18.6
2023-01-29T09:54:31.808Z,18.6
2023-01-29T10:00:02.398Z,18.7
2023-01-29T10:05:32.847Z,18.8
2023-01-29T10:11:03.476Z,18.9
2023-01-29T10:16:33.961Z,18.9
2023-01-29T10:22:04.397Z,19
2023-01-29T10:27:35.136Z,19
2023-01-29T10:33:05.568Z,19
2023-01-29T10:38:36.162Z,19.1
2023-01-29T10:44:06.617Z,19.1
2023-01-29T10:49:37.107Z,19.1
2023-01-29T10:55:07.703Z,19.1
2023-01-29T11:00:38.209Z,19.1
2023-01-29T11:06:08.635Z,19.1
2023-01-29T11:11:39.228Z,19.1
2023-01-29T11:17:09.707Z,19.1
2023-01-29T11:22:40.349Z,19.1
2023-01-29T11:28:09.818Z,19.1
2023-01-29T11:33:40.289Z,19.1
2023-01-29T11:39:09.796Z,19.1
2023-01-29T11:44:40.242Z,19.1
2023-01-29T11:50:10.748Z,19.1
2023-01-29T11:55:50.244Z,19.1
2023-01-29T12:01:10.681Z,19.1
2023-01-29T12:06:41.134Z,19.1
2023-01-29T12:12:11.732Z,19.1
2023-01-29T12:17:42.203Z,19.1
2023-01-29T12:23:12.674Z,19.1
2023-01-29T12:28:42.180Z,19.1
2023-01-29T12:34:12.642Z,19.1
2023-01-29T12:39:43.214Z,19.1
2023-01-29T12:45:13.686Z,19.1
2023-01-29T12:50:44.147Z,19.1
2023-01-29T12:56:14.807Z,19.1
2023-01-29T13:01:45.268Z,19.1
2023-01-29T13:07:15.761Z,19.1
2023-01-29T13:12:45.249Z,19.1
2023-01-29T13:18:15.693Z,19.1
2023-01-29T13:23:46.300Z,19.1
2023-01-29T13:29:16.773Z,19.1
2023-01-29T13:34:47.263Z,19.1
2023-01-29T13:40:16.858Z,19.1
2023-01-29T13:45:47.356Z,19.1
2023-01-29T13:51:17.837Z,19.1
2023-01-29T13:56:48.417Z,19.1
2023-01-29T14:02:18.966Z,19.1
2023-01-29T14:07:48.386Z,19.1
2023-01-29T14:13:18.831Z,19.1
2023-01-29T14:18:49.330Z,19.1
2023-01-29T14:24:18.802Z,19.1
2023-01-29T14:30:55.584Z,19.1
2023-01-29T14:36:24.868Z,19.1
2023-01-29T14:41:55.363Z,19.1
2023-01-29T14:47:25.835Z,19.1
2023-01-29T14:52:55.385Z,19.1
2023-01-29T14:58:25.875Z,19.1
2023-01-29T15:03:56.321Z,19.1
2023-01-29T15:09:35.947Z,19.1
2023-01-29T15:14:57.418Z,19.1
2023-01-29T15:20:27.875Z,19.1
2023-01-29T15:25:58.451Z,19.2
2023-01-29T15:31:29.057Z,19.3
2023-01-29T15:36:59.510Z,19.2
2023-01-29T15:42:29.978Z,19.2
2023-01-29T15:48:00.435Z,19.2
2023-01-29T15:53:29.928Z,19.3
2023-01-29T15:59:00.418Z,19.4
2023-01-29T16:04:30.839Z,19.4
2023-01-29T16:10:00.497Z,19.4
2023-01-29T16:15:30.810Z,19.5
2023-01-29T16:21:00.310Z,19.5
2023-01-29T16:26:30.808Z,19.5
2023-01-29T16:32:01.320Z,19.5
2023-01-29T16:37:31.854Z,19.5
2023-01-29T16:43:02.311Z,19.5
2023-01-29T16:48:32.791Z,19.5
2023-01-29T16:54:02.299Z,19.5
2023-01-29T16:59:32.740Z,19.5
2023-01-29T17:05:03.343Z,19.5
2023-01-29T17:10:33.807Z,19.5
2023-01-29T17:16:04.305Z,19.5
2023-01-29T17:21:34.965Z,19.5
2023-01-29T17:27:05.429Z,19.5
2023-01-29T17:32:44.361Z,19.5
2023-01-29T17:38:11.550Z,19.5
2023-01-29T17:43:36.979Z,19.6
2023-01-29T17:49:07.618Z,19.8
2023-01-29T17:54:38.040Z,20
2023-01-29T18:00:08.531Z,20.2
2023-01-29T18:05:39.145Z,20.3
2023-01-29T18:11:09.603Z,20.5
2023-01-29T18:16:40.279Z,20.6
2023-01-29T18:22:10.787Z,20.6
2023-01-29T18:27:41.270Z,20.6
2023-01-29T18:33:10.738Z,20.6
2023-01-29T18:38:41.205Z,20.6
2023-01-29T18:44:11.708Z,20.5
2023-01-29T18:49:42.302Z,20.5
2023-01-29T18:55:12.817Z,20.5
2023-01-29T19:00:43.306Z,20.5
2023-01-29T19:06:13.841Z,20.6
2023-01-29T19:11:44.310Z,20.7
2023-01-29T19:17:14.995Z,20.8
2023-01-29T19:22:45.394Z,20.9
2023-01-29T19:29:22.017Z,21
2023-01-29T19:34:52.636Z,21
2023-01-29T19:40:23.095Z,21
2023-01-29T19:45:53.589Z,20.9
2023-01-29T19:51:23.104Z,20.9
2023-01-29T19:56:53.534Z,20.8
2023-01-29T20:02:23.032Z,20.8
2023-01-29T20:07:53.519Z,20.7
2023-01-29T20:13:23.979Z,20.7
2023-01-29T20:18:53.476Z,20.7
2023-01-29T20:24:23.935Z,20.7
2023-01-29T20:29:54.426Z,20.6
2023-01-29T20:35:23.909Z,20.7
2023-01-29T20:40:54.397Z,20.7
2023-01-29T20:46:24.975Z,20.6
2023-01-29T20:51:55.460Z,20.6
2023-01-29T20:57:25.919Z,20.6
2023-01-29T21:02:56.551Z,20.7
2023-01-29T21:08:27.028Z,20.6
2023-01-29T21:13:57.720Z,20.6
2023-01-29T21:19:28.116Z,20.6
2023-01-29T21:24:58.866Z,20.6
2023-01-29T21:30:28.155Z,20.6
2023-01-29T21:35:58.553Z,20.6
2023-01-29T21:41:29.010Z,20.6
2023-01-29T21:46:59.695Z,20.6
2023-01-29T21:52:30.176Z,20.6
2023-01-29T21:58:00.728Z,20.6
2023-01-29T22:03:31.318Z,20.6
2023-01-29T22:09:01.825Z,20.6
2023-01-29T22:14:32.325Z,20.6
2023-01-29T22:20:02.763Z,20.6
2023-01-29T22:25:33.252Z,20.6
2023-01-29T22:31:03.849Z,20.6
2023-01-29T22:36:34.323Z,20.6
2023-01-29T22:42:04.885Z,20.6
2023-01-29T22:47:35.490Z,20.5
2023-01-29T22:53:05.952Z,20.5
2023-01-29T22:58:36.444Z,20.5
2023-01-29T23:04:05.956Z,20.5
2023-01-29T23:09:36.430Z,20.5
2023-01-29T23:15:07.018Z,20.5
2023-01-29T23:20:37.591Z,20.5
2023-01-29T23:26:08.056Z,20.4
2023-01-29T23:31:37.613Z,20.3
2023-01-29T23:37:08.048Z,20.3
2023-01-29T23:42:38.536Z,20.2
2023-01-29T23:48:08.011Z,20.2
2023-01-29T23:53:38.507Z,20.2
2023-01-29T23:59:08.992Z,20.2
